createdAt,value
2023-03-13T00:01:00.807Z,3.34
2023-03-13T00:05:01.407Z,3.28
2023-03-13T00:09:02.102Z,3.19
2023-03-13T00:13:02.644Z,3.08
2023-03-13T00:17:01.886Z,3.17
2023-03-13T00:21:02.470Z,3.14
2023-03-13T00:25:01.791Z,2.93
2023-03-13T00:29:01.872Z,2.87
2023-03-13T00:33:08.897Z,2.85
2023-03-13T00:37:11.761Z,2.76
2023-03-13T00:41:12.879Z,2.70
2023-03-13T00:45:17.289Z,2.71
2023-03-13T00:49:16.893Z,2.72
2023-03-13T00:53:19.951Z,2.74
2023-03-13T00:57:21.986Z,2.69
2023-03-13T01:01:24.904Z,2.67
2023-03-13T01:05:24.852Z,2.70
2023-03-13T01:09:28.025Z,2.65
2023-03-13T01:13:22.407Z,2.47
2023-03-13T01:17:32.611Z,2.44
2023-03-13T01:21:32.989Z,2.37
2023-03-13T01:25:35.834Z,2.32
2023-03-13T01:29:35.830Z,2.10
2023-03-13T01:33:49.578Z,1.97
2023-03-13T01:37:52.829Z,1.93
2023-03-13T01:41:51.370Z,1.76
2023-03-13T01:45:52.607Z,1.69
2023-03-13T01:49:56.126Z,1.55
2023-03-13T01:54:13.874Z,1.53
2023-03-13T01:58:16.614Z,1.47
2023-03-13T02:02:15.869Z,1.37
2023-03-13T02:06:14.369Z,1.43
2023-03-13T02:10:08.959Z,1.32
2023-03-13T02:14:14.439Z,1.19
2023-03-13T02:18:14.960Z,1.13
2023-03-13T02:22:18.719Z,1.19
2023-03-13T02:26:18.945Z,0.99
2023-03-13T02:30:28.977Z,0.71
2023-03-13T02:34:29.055Z,0.77
2023-03-13T02:38:28.692Z,0.75
2023-03-13T02:42:22.932Z,0.70
2023-03-13T02:46:31.088Z,0.73
2023-03-13T02:50:32.979Z,0.61
2023-03-13T02:54:36.084Z,0.61
2023-03-13T02:58:35.650Z,0.61
2023-03-13T03:02:41.105Z,0.57
2023-03-13T03:06:35.167Z,0.64
2023-03-13T03:10:34.947Z,0.67
2023-03-13T03:14:45.053Z,0.48
2023-03-13T03:18:48.219Z,0.42
2023-03-13T03:22:48.143Z,0.26
2023-03-13T03:26:52.841Z,0.13
2023-03-13T03:30:57.211Z,0.22
2023-03-13T03:34:56.281Z,0.16
2023-03-13T03:38:51.529Z,0.14
2023-03-13T03:43:00.277Z,0.20
2023-03-13T03:47:09.512Z,0.13
2023-03-13T03:51:16.247Z,0.04
2023-03-13T03:55:18.330Z,0.17
2023-03-13T03:59:21.136Z,0.06
2023-03-13T04:03:22.067Z,-0.04
2023-03-13T04:07:20.926Z,-0.28
2023-03-13T04:11:24.168Z,-0.28
2023-03-13T04:15:29.974Z,-0.27
2023-03-13T04:19:32.181Z,-0.19
2023-03-13T04:23:36.303Z,-0.31
2023-03-13T04:27:35.295Z,-0.45
2023-03-13T04:31:34.622Z,-0.49
2023-03-13T04:36:05.429Z,-0.55
2023-03-13T04:40:26.220Z,-0.47
2023-03-13T04:44:35.203Z,-0.39
2023-03-13T04:48:38.741Z,-0.21
2023-03-13T04:52:54.321Z,-0.15
2023-03-13T04:57:07.222Z,0.07
2023-03-13T05:01:29.851Z,0.34
2023-03-13T05:06:02.567Z,0.54
2023-03-13T05:10:17.982Z,0.75
2023-03-13T05:14:23.831Z,0.98
2023-03-13T05:18:29.250Z,1.16
2023-03-13T05:22:58.835Z,1.47
2023-03-13T05:27:04.550Z,1.71
2023-03-13T05:31:13.395Z,1.90
2023-03-13T05:35:13.357Z,2.12
2023-03-13T05:39:22.058Z,2.32
2023-03-13T05:43:10.357Z,2.55
2023-03-13T05:47:09.415Z,2.80
2023-03-13T05:51:23.620Z,3.04
2023-03-13T05:55:44.113Z,3.34
2023-03-13T06:00:13.374Z,3.62
2023-03-13T06:04:27.318Z,3.97
2023-03-13T06:08:32.833Z,4.23
2023-03-13T06:12:34.112Z,4.33
2023-03-13T06:16:31.713Z,4.66
2023-03-13T06:20:42.246Z,4.85
2023-03-13T06:24:39.368Z,5.07
2023-03-13T06:28:39.994Z,5.27
2023-03-13T06:32:31.673Z,5.45
2023-03-13T06:36:19.485Z,5.59
2023-03-13T06:40:05.847Z,5.59
2023-03-13T06:43:52.252Z,5.74
2023-03-13T06:47:39.348Z,5.80
2023-03-13T06:51:25.747Z,5.96
2023-03-13T06:55:12.252Z,6.33
2023-03-13T06:59:19.528Z,6.46
2023-03-13T07:03:16.308Z,6.20
2023-03-13T07:07:29.397Z,5.90
2023-03-13T07:11:32.811Z,5.83
2023-03-13T07:15:33.870Z,6.06
2023-03-13T07:19:34.535Z,6.31
2023-03-13T07:23:35.115Z,6.59
2023-03-13T07:27:31.842Z,6.72
2023-03-13T07:31:33.659Z,6.77
2023-03-13T07:35:30.323Z,6.93
2023-03-13T07:39:32.297Z,7.04
2023-03-13T07:43:29.834Z,7.27
2023-03-13T07:47:30.168Z,7.17
2023-03-13T07:51:40.775Z,7.25
2023-03-13T07:55:45.885Z,7.46
2023-03-13T07:59:42.892Z,7.69
2023-03-13T08:03:43.836Z,8.06
2023-03-13T08:07:46.711Z,8.49
2023-03-13T08:11:47.071Z,8.81
2023-03-13T08:15:44.041Z,9.01
2023-03-13T08:19:43.949Z,8.98
2023-03-13T08:23:40.617Z,8.89
2023-03-13T08:27:43.691Z,9.05
2023-03-13T08:31:39.817Z,9.35
2023-03-13T08:35:40.756Z,9.55
2023-03-13T08:39:43.614Z,9.41
2023-03-13T08:43:43.854Z,9.12
2023-03-13T08:47:47.557Z,9.23
2023-03-13T08:51:48.715Z,9.43
2023-03-13T08:55:51.543Z,9.55
2023-03-13T08:59:51.822Z,9.65
2023-03-13T09:03:54.595Z,9.81
2023-03-13T09:07:53.659Z,9.98
2023-03-13T09:11:52.255Z,9.86
2023-03-13T09:15:50.378Z,9.94
2023-03-13T09:20:01.726Z,10.25
2023-03-13T09:24:01.660Z,10.48
2023-03-13T09:28:04.377Z,10.77
2023-03-13T09:32:04.941Z,10.93
2023-03-13T09:36:09.742Z,10.91
2023-03-13T09:40:07.829Z,11.09
2023-03-13T09:44:07.165Z,11.08
2023-03-13T09:48:09.643Z,10.90
2023-03-13T09:52:16.184Z,11.14
2023-03-13T09:56:13.914Z,11.21
2023-03-13T10:00:16.751Z,11.46
2023-03-13T10:04:18.062Z,11.29
2023-03-13T10:08:18.529Z,11.44
2023-03-13T10:12:12.697Z,11.59
2023-03-13T10:16:13.526Z,11.70
2023-03-13T10:20:10.277Z,11.83
2023-03-13T10:24:11.138Z,11.84
2023-03-13T10:28:11.981Z,11.80
2023-03-13T10:32:12.499Z,11.86
2023-03-13T10:36:09.294Z,11.83
2023-03-13T10:40:07.788Z,11.88
2023-03-13T10:44:08.727Z,11.74
2023-03-13T10:48:09.063Z,11.64
2023-03-13T10:52:08.039Z,11.54
2023-03-13T10:56:08.400Z,11.49
2023-03-13T11:00:04.946Z,11.78
2023-03-13T11:04:03.429Z,11.73
2023-03-13T11:07:57.933Z,11.87
2023-03-13T11:12:00.456Z,11.47
2023-03-13T11:15:57.022Z,11.56
2023-03-13T11:19:57.727Z,11.78
2023-03-13T11:23:53.854Z,11.96
2023-03-13T11:27:54.388Z,12.02
2023-03-13T11:31:50.862Z,12.36
2023-03-13T11:35:54.350Z,12.46
2023-03-13T11:39:49.763Z,12.59
2023-03-13T11:43:48.170Z,12.54
2023-03-13T11:47:48.883Z,12.56
2023-03-13T11:51:49.343Z,12.47
2023-03-13T11:55:46.393Z,12.34
2023-03-13T11:59:48.210Z,12.20
2023-03-13T12:03:46.517Z,12.14
2023-03-13T12:07:46.143Z,12.30
2023-03-13T12:11:48.306Z,12.17
2023-03-13T12:15:48.409Z,12.07
2023-03-13T12:19:45.938Z,11.95
2023-03-13T12:23:46.212Z,11.85
2023-03-13T12:27:43.925Z,11.79
2023-03-13T12:31:46.430Z,11.80
2023-03-13T12:35:40.655Z,11.74
2023-03-13T12:39:45.221Z,11.70
2023-03-13T12:43:42.283Z,11.45
2023-03-13T12:47:42.825Z,11.55
2023-03-13T12:51:39.245Z,11.62
2023-03-13T12:55:39.919Z,11.68
2023-03-13T12:59:36.233Z,11.73
2023-03-13T13:03:34.226Z,11.69
2023-03-13T13:07:34.841Z,11.84
2023-03-13T13:11:35.670Z,11.86
2023-03-13T13:15:32.491Z,11.88
2023-03-13T13:19:33.412Z,11.99
2023-03-13T13:23:30.345Z,11.93
2023-03-13T13:27:29.095Z,11.63
2023-03-13T13:31:23.728Z,11.55
2023-03-13T13:35:24.207Z,11.51
2023-03-13T13:39:22.087Z,11.49
2023-03-13T13:43:22.808Z,11.38
2023-03-13T13:47:19.220Z,11.44
2023-03-13T13:51:19.795Z,11.56
2023-03-13T13:55:23.012Z,11.58
2023-03-13T13:59:27.488Z,11.47
2023-03-13T14:03:24.077Z,11.43
2023-03-13T14:07:25.024Z,11.65
2023-03-13T14:11:24.402Z,11.58
2023-03-13T14:15:24.719Z,11.66
2023-03-13T14:19:20.166Z,11.59
2023-03-13T14:23:19.416Z,11.50
2023-03-13T14:27:16.512Z,11.24
2023-03-13T14:31:17.215Z,11.20
2023-03-13T14:35:13.242Z,11.03
2023-03-13T14:39:13.589Z,10.91
2023-03-13T14:43:11.405Z,10.68
2023-03-13T14:47:10.761Z,10.58
2023-03-13T14:51:16.093Z,10.41
2023-03-13T14:55:17.307Z,10.31
2023-03-13T14:59:18.441Z,10.22
2023-03-13T15:03:18.634Z,10.09
2023-03-13T15:07:15.384Z,10.00
2023-03-13T15:11:18.030Z,9.91
2023-03-13T15:15:12.081Z,9.91
2023-03-13T15:19:16.588Z,9.90
2023-03-13T15:22:56.429Z,9.80
2023-03-13T15:26:52.484Z,9.64
2023-03-13T15:30:52.884Z,9.49
2023-03-13T15:34:49.377Z,9.36
2023-03-13T15:38:50.861Z,9.24
2023-03-13T15:42:45.245Z,9.11
2023-03-13T15:46:49.510Z,8.97
2023-03-13T15:50:47.507Z,8.90
2023-03-13T15:54:48.156Z,8.78
2023-03-13T15:58:45.521Z,8.59
2023-03-13T16:02:46.761Z,8.42
2023-03-13T16:06:41.442Z,8.18
2023-03-13T16:10:40.144Z,8.09
2023-03-13T16:14:40.852Z,8.00
2023-03-13T16:18:42.142Z,7.87
2023-03-13T16:22:40.354Z,7.75
2023-03-13T16:26:41.703Z,7.55
2023-03-13T16:30:38.539Z,7.28
2023-03-13T16:34:32.784Z,6.98
2023-03-13T16:38:19.143Z,7.01
2023-03-13T16:42:05.200Z,6.95
2023-03-13T16:45:53.668Z,6.90
2023-03-13T16:49:47.767Z,6.80
2023-03-13T16:53:41.642Z,6.65
2023-03-13T16:57:38.645Z,6.24
2023-03-13T17:01:39.190Z,6.11
2023-03-13T17:05:35.292Z,5.96
2023-03-13T17:09:39.482Z,5.83
2023-03-13T17:13:36.761Z,5.94
2023-03-13T17:17:38.046Z,5.75
2023-03-13T17:21:35.724Z,5.76
2023-03-13T17:25:31.952Z,5.72
2023-03-13T17:29:18.608Z,5.75
2023-03-13T17:33:04.813Z,5.79
2023-03-13T17:36:51.651Z,5.79
2023-03-13T17:40:37.452Z,5.82
2023-03-13T17:44:24.099Z,5.72
2023-03-13T17:48:10.316Z,5.66
2023-03-13T17:51:56.490Z,5.70
2023-03-13T17:55:48.562Z,5.72
2023-03-13T17:59:41.545Z,5.68
2023-03-13T18:03:42.233Z,5.66
2023-03-13T18:07:42.775Z,5.64
2023-03-13T18:11:44.567Z,5.68
2023-03-13T18:15:45.562Z,5.74
2023-03-13T18:19:50.900Z,5.74
2023-03-13T18:23:47.725Z,5.75
2023-03-13T18:27:44.898Z,5.73
2023-03-13T18:31:45.572Z,5.66
2023-03-13T18:35:31.875Z,5.64
2023-03-13T18:39:32.948Z,5.67
2023-03-13T18:43:30.879Z,5.63
2023-03-13T18:47:27.536Z,5.60
2023-03-13T18:51:30.345Z,5.69
2023-03-13T18:55:27.085Z,5.91
2023-03-13T18:59:27.709Z,5.97
2023-03-13T19:03:24.709Z,6.10
2023-03-13T19:07:29.296Z,6.20
2023-03-13T19:11:26.047Z,6.28
2023-03-13T19:15:30.732Z,6.32
2023-03-13T19:19:28.196Z,6.24
2023-03-13T19:23:29.759Z,6.34
2023-03-13T19:27:27.292Z,6.35
2023-03-13T19:31:27.782Z,6.38
2023-03-13T19:35:28.578Z,6.43
2023-03-13T19:39:29.779Z,6.45
2023-03-13T19:43:28.435Z,6.41
2023-03-13T19:47:29.886Z,6.37
2023-03-13T19:51:28.042Z,6.28
2023-03-13T19:55:28.779Z,6.36
2023-03-13T19:59:28.836Z,6.35
2023-03-13T20:03:34.762Z,5.85
2023-03-13T20:07:32.972Z,5.76
2023-03-13T20:11:33.860Z,5.77
2023-03-13T20:15:43.526Z,5.74
2023-03-13T20:19:44.693Z,5.71
2023-03-13T20:23:42.499Z,5.69
2023-03-13T20:27:42.709Z,5.64
2023-03-13T20:31:42.835Z,5.64
2023-03-13T20:35:47.896Z,5.64
2023-03-13T20:39:47.963Z,5.64
2023-03-13T20:43:51.911Z,5.59
2023-03-13T20:47:52.813Z,5.49
2023-03-13T20:51:55.909Z,5.43
2023-03-13T20:55:56.284Z,5.28
2023-03-13T20:59:57.770Z,5.14
2023-03-13T21:03:59.817Z,5.11
2023-03-13T21:08:00.848Z,5.14
2023-03-13T21:12:02.702Z,5.53
2023-03-13T21:16:03.443Z,5.48
2023-03-13T21:20:02.025Z,5.41
2023-03-13T21:24:04.776Z,5.42
2023-03-13T21:28:03.934Z,5.29
2023-03-13T21:32:06.471Z,5.41
2023-03-13T21:36:06.268Z,5.34
2023-03-13T21:40:08.852Z,5.45
2023-03-13T21:44:09.016Z,5.54
2023-03-13T21:48:10.890Z,5.51
2023-03-13T21:52:09.029Z,5.50
2023-03-13T21:56:11.910Z,5.63
2023-03-13T22:00:17.053Z,5.55
2023-03-13T22:04:18.834Z,5.51
2023-03-13T22:08:20.051Z,5.32
2023-03-13T22:12:22.481Z,5.37
2023-03-13T22:16:22.103Z,5.33
2023-03-13T22:20:31.972Z,5.21
2023-03-13T22:24:32.269Z,5.26
2023-03-13T22:28:34.498Z,5.22
2023-03-13T22:32:33.152Z,5.09
2023-03-13T22:36:35.987Z,5.07
2023-03-13T22:40:36.096Z,5.10
2023-03-13T22:44:39.642Z,5.00
2023-03-13T22:48:38.936Z,5.01
2023-03-13T22:52:41.651Z,5.05
2023-03-13T22:56:43.099Z,5.08
2023-03-13T23:00:46.130Z,5.11
2023-03-13T23:04:45.089Z,4.98
2023-03-13T23:08:50.043Z,4.87
2023-03-13T23:12:48.185Z,4.88
2023-03-13T23:16:51.604Z,4.84
2023-03-13T23:20:50.132Z,4.83
2023-03-13T23:24:54.221Z,4.75
2023-03-13T23:28:53.208Z,4.54
2023-03-13T23:32:55.531Z,4.75
2023-03-13T23:36:55.160Z,4.67
2023-03-13T23:41:02.580Z,4.64
2023-03-13T23:45:02.217Z,4.58
2023-03-13T23:49:05.517Z,4.67
2023-03-13T23:53:04.224Z,4.67
2023-03-13T23:57:06.721Z,4.70
